Time;durP1;ratioP1;P1;durP2;ratioP2;P2;SDS_P1;SDS_P2;PMS_P1;PMS_P2;Temp;Humidity;BMP_temperature;BMP_pressure;BME280_temperature;BME280_humidity;BME280_pressure;Samples;Min_cycle;Max_cycle;Signal;HPM_P1;HPM_P2
2022/04/08 04:42:27;;;;;;;27.45;13.43;;;;;;;4.08;77.27;98351.55;1724672;82;21100;-35
2022/04/08 04:44:56;;;;;;;25.50;13.15;;;;;;;4.35;76.35;98356.14;1713064;84;21615;-42
2022/04/08 04:47:22;;;;;;;24.52;12.80;;;;;;;4.53;75.87;98354.76;1713143;84;21039;-43
2022/04/08 04:49:49;;;;;;;46.00;14.68;;;;;;;4.72;75.70;98351.59;1721054;83;21066;-35
2022/04/08 04:52:17;;;;;;;33.08;13.98;;;;;;;4.89;75.38;98343.25;1700750;84;21042;-42
2022/04/08 04:54:44;;;;;;;30.60;15.10;;;;;;;5.03;75.17;98343.12;1724969;83;21037;-36
2022/04/08 04:57:13;;;;;;;30.92;14.55;;;;;;;5.18;74.80;98348.19;1711810;84;21032;-42
2022/04/08 04:59:42;;;;;;;28.20;14.98;;;;;;;5.31;74.28;98350.22;1712663;84;21024;-43
2022/04/08 05:02:09;;;;;;;28.80;14.80;;;;;;;5.42;74.02;98341.89;1693254;82;21044;-35
2022/04/08 05:04:36;;;;;;;31.00;14.43;;;;;;;5.56;74.04;98346.48;1662312;84;21059;-35
2022/04/08 05:07:04;;;;;;;31.57;13.60;;;;;;;5.73;73.75;98351.93;1687715;84;21074;-42
2022/04/08 05:09:32;;;;;;;30.57;15.15;;;;;;;5.88;73.21;98340.94;1678567;82;21029;-35
2022/04/08 05:12:00;;;;;;;30.45;13.95;;;;;;;6.01;72.93;98341.67;1699256;83;21060;-42
2022/04/08 05:14:28;;;;;;;32.63;15.13;;;;;;;6.16;72.95;98340.63;1717713;82;21069;-35
2022/04/08 05:16:58;;;;;;;34.27;13.65;;;;;;;6.32;72.86;98338.25;1712629;83;21036;-35
2022/04/08 05:19:25;;;;;;;27.90;13.78;;;;;;;6.47;72.30;98336.30;1701224;84;21032;-44
2022/04/08 05:21:52;;;;;;;30.45;14.05;;;;;;;6.56;71.84;98328.38;1701422;84;21084;-36
2022/04/08 05:24:20;;;;;;;37.60;13.20;;;;;;;6.65;71.64;98332.98;1672884;84;21545;-36
2022/04/08 05:26:47;;;;;;;30.57;13.43;;;;;;;6.71;71.35;98337.66;1699928;83;21581;-36
2022/04/08 05:29:14;;;;;;;27.77;14.70;;;;;;;6.77;71.50;98333.23;1690701;84;20980;-36
2022/04/08 05:31:41;;;;;;;25.10;14.80;;;;;;;6.84;71.58;98332.69;1664654;84;21107;-43
2022/04/08 05:34:08;;;;;;;32.55;14.60;;;;;;;6.89;71.35;98332.17;1712848;84;21566;-35
2022/04/08 05:36:35;;;;;;;20.43;13.30;;;;;;;7.00;71.75;98322.90;1683673;84;21014;-43
2022/04/08 05:39:02;;;;;;;22.00;13.18;;;;;;;7.17;72.02;98311.77;1712790;84;21632;-42
2022/04/08 05:41:30;;;;;;;26.30;12.63;;;;;;;7.42;71.47;98319.55;1696629;84;21150;-43
2022/04/08 05:43:57;;;;;;;21.33;11.33;;;;;;;7.69;70.57;98315.99;1658253;85;21057;-43
2022/04/08 05:46:23;;;;;;;20.30;11.08;;;;;;;7.93;69.33;98313.33;1641010;85;21060;-43
2022/04/08 05:48:50;;;;;;;21.10;10.63;;;;;;;8.16;68.69;98310.24;1687870;84;21009;-43
2022/04/08 05:51:17;;;;;;;19.95;10.20;;;;;;;8.37;67.74;98308.95;1664020;84;21064;-43
2022/04/08 05:53:44;;;;;;;22.58;9.55;;;;;;;8.59;66.43;98308.87;1665333;85;21001;-35
2022/04/08 05:56:11;;;;;;;15.48;9.80;;;;;;;8.80;65.59;98312.25;1675908;85;21040;-35
2022/04/08 05:58:38;;;;;;;14.70;8.65;;;;;;;8.96;64.91;98315.80;1680107;85;21524;-35
2022/04/08 06:01:04;;;;;;;18.73;8.53;;;;;;;9.07;64.13;98305.96;1665546;85;21472;-42
2022/04/08 06:03:31;;;;;;;14.18;8.93;;;;;;;9.17;63.40;98303.98;1665496;85;21025;-35
2022/04/08 06:05:58;;;;;;;15.58;8.93;;;;;;;9.31;62.73;98301.86;1688168;85;21155;-34
2022/04/08 06:08:25;;;;;;;21.35;9.78;;;;;;;9.44;62.32;98305.84;1677966;84;21033;-43
2022/04/08 06:10:52;;;;;;;15.13;8.83;;;;;;;9.53;61.79;98309.52;1688229;85;21045;-43
2022/04/08 06:13:24;;;;;;;14.20;8.38;;;;;;;9.62;61.37;98312.77;1655530;85;21021;-36
2022/04/08 06:15:49;;;;;;;15.93;9.60;;;;;;;9.69;61.02;98307.81;1688001;85;21045;-43
2022/04/08 06:18:18;;;;;;;16.05;9.75;;;;;;;9.74;60.51;98301.98;1688065;85;20993;-43
2022/04/08 06:20:45;;;;;;;19.87;9.48;;;;;;;9.80;60.23;98300.08;1687796;85;21103;-42
2022/04/08 06:23:12;;;;;;;18.95;9.35;;;;;;;9.84;60.04;98293.84;1665057;85;21572;-43
2022/04/08 06:25:38;;;;;;;19.65;9.73;;;;;;;9.90;59.86;98292.81;1688082;85;21435;-35
2022/04/08 06:28:07;;;;;;;17.12;10.30;;;;;;;9.96;59.20;98291.78;1687471;84;21093;-42
2022/04/08 06:30:35;;;;;;;17.12;9.35;;;;;;;9.99;59.04;98290.40;1688290;85;21081;-35
2022/04/08 06:33:05;;;;;;;16.30;9.80;;;;;;;10.03;58.89;98285.47;1688127;85;21463;-35
2022/04/08 06:35:32;;;;;;;14.00;9.55;;;;;;;10.08;59.02;98295.34;1666479;84;21053;-43
2022/04/08 06:38:05;;;;;;;19.52;11.48;;;;;;;10.10;58.79;98299.63;1666946;84;21060;-35
2022/04/08 06:40:35;;;;;;;19.05;9.38;;;;;;;10.14;58.11;98308.22;1688562;84;21096;-42
2022/04/08 06:43:03;;;;;;;15.65;9.95;;;;;;;10.16;58.49;98309.50;1710994;82;21018;-35
2022/04/08 06:45:30;;;;;;;14.15;9.55;;;;;;;10.27;58.51;98309.62;1722270;82;21573;-43
2022/04/08 06:47:57;;;;;;;16.17;9.65;;;;;;;10.37;57.75;98308.86;1751561;82;21058;-36
2022/04/08 06:50:25;;;;;;;16.07;9.50;;;;;;;10.41;57.87;98312.25;1721952;82;21072;-43
2022/04/08 06:52:59;;;;;;;13.68;9.83;;;;;;;10.44;57.66;98313.48;1733431;82;21043;-35
2022/04/08 06:55:24;;;;;;;16.95;8.63;;;;;;;10.45;57.65;98311.27;1719287;82;21408;-36
2022/04/08 06:57:51;;;;;;;14.70;9.43;;;;;;;10.49;57.32;98311.55;1713497;82;21044;-35
2022/04/08 07:00:18;;;;;;;13.65;8.95;;;;;;;10.52;57.40;98313.63;1721713;82;21029;-43
2022/04/08 07:02:46;;;;;;;14.07;8.18;;;;;;;10.56;57.17;98317.88;1721858;82;21093;-42
2022/04/08 07:05:13;;;;;;;13.48;7.95;;;;;;;10.64;57.14;98316.31;1723866;83;21116;-35
2022/04/08 07:07:40;;;;;;;15.25;8.78;;;;;;;10.69;56.67;98317.03;1722034;82;21573;-42
2022/04/08 07:10:08;;;;;;;15.28;8.68;;;;;;;10.73;56.25;98317.34;1744679;82;21044;-35
2022/04/08 07:12:35;;;;;;;14.85;9.33;;;;;;;10.76;56.38;98320.30;1737911;82;21078;-35
2022/04/08 07:15:02;;;;;;;13.80;7.62;;;;;;;10.80;56.21;98320.16;1723003;82;21539;-42
2022/04/08 07:17:33;;;;;;;14.40;8.78;;;;;;;10.86;56.46;98321.73;1738576;82;21410;-35
2022/04/08 07:20:00;;;;;;;13.48;9.10;;;;;;;10.91;55.85;98327.21;1706970;82;21070;-42
2022/04/08 07:22:27;;;;;;;16.30;8.73;;;;;;;10.94;55.73;98328.86;1739325;81;21516;-35
2022/04/08 07:24:54;;;;;;;15.70;8.33;;;;;;;11.01;55.96;98334.74;1663276;83;21060;-35
2022/04/08 07:27:22;;;;;;;16.05;9.25;;;;;;;11.08;55.74;98334.97;1750807;82;21017;-42
2022/04/08 07:29:50;;;;;;;19.27;9.73;;;;;;;11.13;55.80;98340.88;1751181;82;21016;-35
2022/04/08 07:32:20;;;;;;;14.03;8.58;;;;;;;11.19;55.55;98338.09;1723169;82;21048;-36
2022/04/08 07:34:49;;;;;;;20.55;9.93;;;;;;;11.28;55.12;98348.69;1743793;82;20988;-42
2022/04/08 07:37:32;;;;;;;17.92;9.75;;;;;;;11.24;54.81;98345.77;1719816;82;21035;-43
2022/04/08 07:40:00;;;;;;;22.27;10.15;;;;;;;11.23;55.25;98338.83;1682545;83;21108;-43
2022/04/08 07:42:27;;;;;;;13.83;9.50;;;;;;;11.26;55.26;98338.28;1718996;82;21046;-43
2022/04/08 07:44:54;;;;;;;18.17;11.63;;;;;;;11.28;55.41;98340.84;1718462;82;20940;-42
2022/04/08 07:47:29;;;;;;;19.80;10.68;;;;;;;11.34;55.16;98340.17;1710706;82;21078;-42
2022/04/08 07:50:06;;;;;;;13.98;10.00;;;;;;;11.38;55.11;98342.24;1697067;82;20961;-43
2022/04/08 07:52:35;;;;;;;16.55;10.80;;;;;;;11.40;55.14;98351.74;1714687;82;21425;-44
2022/04/08 07:55:04;;;;;;;15.78;11.30;;;;;;;11.43;54.75;98355.58;1724367;82;23328;-43
2022/04/08 07:57:31;;;;;;;17.27;11.88;;;;;;;11.38;54.58;98360.57;1715132;82;21454;-44
2022/04/08 07:59:58;;;;;;;17.45;10.25;;;;;;;11.33;54.74;98357.25;1723839;82;20957;-43
2022/04/08 08:02:29;;;;;;;22.73;11.57;;;;;;;11.34;54.94;98361.11;1715850;82;21046;-44
2022/04/08 08:04:53;;;;;;;25.45;12.53;;;;;;;11.38;54.63;98377.59;1715335;82;21007;-43
2022/04/08 08:07:20;;;;;;;23.07;12.70;;;;;;;11.40;54.73;98388.86;1714940;82;21074;-44
2022/04/08 08:09:54;;;;;;;21.20;11.48;;;;;;;11.41;55.06;98395.80;1724482;82;21074;-43
2022/04/08 08:12:23;;;;;;;19.50;9.93;;;;;;;11.44;55.12;98389.16;1722690;82;21068;-36
2022/04/08 08:14:54;;;;;;;20.05;9.55;;;;;;;11.44;54.55;98397.88;1708620;82;21523;-36
2022/04/08 08:17:26;;;;;;;22.52;11.85;;;;;;;11.43;54.46;98401.41;1692300;83;21034;-36
2022/04/08 08:19:54;;;;;;;16.95;10.90;;;;;;;11.43;54.61;98408.41;1711037;83;21583;-36
2022/04/08 08:22:22;;;;;;;13.85;9.35;;;;;;;11.45;54.92;98413.98;1711282;84;21074;-36
2022/04/08 08:24:53;;;;;;;20.95;9.55;;;;;;;11.45;55.02;98421.83;1650260;85;21066;-44
2022/04/08 08:27:21;;;;;;;23.92;9.55;;;;;;;11.47;54.75;98419.16;1657767;85;21617;-43
2022/04/08 08:29:52;;;;;;;18.55;9.00;;;;;;;11.53;54.49;98420.72;1681519;85;21082;-36
2022/04/08 08:32:20;;;;;;;20.55;8.78;;;;;;;11.58;54.63;98422.27;1681773;84;21111;-35
2022/04/08 08:34:50;;;;;;;15.00;8.73;;;;;;;11.64;54.46;98424.69;1671967;85;21500;-36
2022/04/08 08:37:19;;;;;;;20.43;8.58;;;;;;;11.67;53.95;98426.37;1657850;85;21023;-43
2022/04/08 08:39:48;;;;;;;13.53;8.58;;;;;;;11.70;54.28;98424.94;1672097;85;21050;-43
2022/04/08 08:42:21;;;;;;;16.07;9.18;;;;;;;11.75;54.28;98422.16;1681599;85;21095;-43
2022/04/08 08:44:49;;;;;;;20.47;9.27;;;;;;;11.82;54.14;98425.85;1713145;83;21026;-43
2022/04/08 08:47:19;;;;;;;18.40;7.87;;;;;;;11.85;54.72;98428.84;1707684;83;21574;-43
2022/04/08 08:49:50;;;;;;;16.60;8.28;;;;;;;11.88;54.64;98430.87;1751337;82;21054;-36
2022/04/08 08:52:22;;;;;;;16.90;8.08;;;;;;;11.93;54.31;98434.20;1723045;82;21034;-36
2022/04/08 08:54:47;;;;;;;13.60;7.42;;;;;;;11.96;53.97;98437.19;1719985;83;21503;-42
2022/04/08 08:57:17;;;;;;;15.35;7.85;;;;;;;11.98;54.12;98437.98;1720704;82;21456;-43
2022/04/08 08:59:47;;;;;;;12.73;7.10;;;;;;;11.98;53.86;98440.14;1715681;83;21029;-43
2022/04/08 09:02:21;;;;;;;10.32;6.87;;;;;;;11.98;54.29;98440.59;1715898;83;21041;-43
2022/04/08 09:04:51;;;;;;;14.05;8.05;;;;;;;12.02;53.94;98443.52;1716017;83;21339;-35
2022/04/08 09:07:28;;;;;;;12.63;8.03;;;;;;;12.02;53.73;98447.45;1706328;83;21060;-42
2022/04/08 09:09:59;;;;;;;17.32;8.33;;;;;;;11.99;53.94;98452.78;1715741;83;21518;-35
2022/04/08 09:12:28;;;;;;;15.13;8.23;;;;;;;11.91;53.81;98445.66;1685100;83;20993;-35
2022/04/08 09:15:00;;;;;;;12.03;8.45;;;;;;;11.83;54.23;98448.97;1684212;85;21013;-36
2022/04/08 09:17:31;;;;;;;15.32;8.45;;;;;;;11.72;54.24;98437.09;1705229;83;21073;-35
2022/04/08 09:20:02;;;;;;;11.12;7.33;;;;;;;11.64;54.83;98447.41;1686565;83;21112;-35
2022/04/08 09:22:33;;;;;;;16.52;8.38;;;;;;;11.58;54.92;98438.45;1693160;84;21044;-35
2022/04/08 09:25:10;;;;;;;15.80;6.45;;;;;;;11.57;54.98;98432.81;1747172;81;21088;-35
2022/04/08 09:27:44;;;;;;;11.38;6.33;;;;;;;11.54;55.32;98429.86;1692776;83;21043;-36
2022/04/08 09:30:19;;;;;;;11.08;7.00;;;;;;;11.55;55.58;98430.70;1751382;82;21069;-36
2022/04/08 09:32:52;;;;;;;15.25;6.60;;;;;;;11.53;55.31;98432.05;1706053;83;21597;-36
2022/04/08 09:35:29;;;;;;;13.05;6.33;;;;;;;11.48;55.37;98426.13;1750544;82;21076;-36
2022/04/08 09:38:03;;;;;;;13.08;5.67;;;;;;;11.47;55.44;98429.63;1745978;82;21030;-44
2022/04/08 09:40:39;;;;;;;11.60;5.75;;;;;;;11.46;55.56;98429.23;1741327;82;21050;-43
2022/04/08 09:43:09;;;;;;;17.15;8.08;;;;;;;11.45;55.58;98434.93;1701529;83;21556;-44
2022/04/08 09:45:42;;;;;;;11.88;5.72;;;;;;;11.42;55.71;98431.12;1711065;83;21514;-43
2022/04/08 09:48:16;;;;;;;8.28;5.33;;;;;;;11.39;55.58;98429.05;1711946;83;21068;-44
2022/04/08 09:50:49;;;;;;;17.98;6.03;;;;;;;11.37;56.09;98432.17;1710904;83;21475;-44
2022/04/08 09:53:24;;;;;;;12.05;5.55;;;;;;;11.35;56.42;98429.58;1711466;83;21062;-42
2022/04/08 09:56:02;;;;;;;12.45;5.50;;;;;;;11.36;56.21;98433.91;1695272;83;21057;-43
2022/04/08 09:58:33;;;;;;;15.00;6.10;;;;;;;11.35;56.39;98436.58;1712973;82;21545;-43
2022/04/08 10:01:06;;;;;;;12.15;5.85;;;;;;;11.34;56.71;98427.02;1710201;82;21651;-43
2022/04/08 10:03:40;;;;;;;20.08;6.37;;;;;;;11.33;56.65;98430.09;1706456;82;21070;-43
2022/04/08 10:06:10;;;;;;;12.53;4.53;;;;;;;11.35;57.04;98436.58;1709312;83;21105;-43
2022/04/08 10:08:37;;;;;;;16.00;5.58;;;;;;;11.35;57.12;98436.13;1706678;83;21049;-43
2022/04/08 10:11:16;;;;;;;15.80;5.47;;;;;;;11.36;57.35;98448.30;1706289;82;21063;-43
2022/04/08 10:14:30;;;;;;;13.85;6.35;;;;;;;11.38;57.76;98454.83;1714923;83;21575;-43
2022/04/08 10:16:59;;;;;;;14.43;5.30;;;;;;;11.42;57.73;98463.84;1706981;83;21032;-43
2022/04/08 10:19:30;;;;;;;15.90;6.75;;;;;;;11.48;57.93;98460.59;1687569;83;21338;-43
2022/04/08 10:22:02;;;;;;;9.15;4.30;;;;;;;11.51;58.49;98459.20;1695069;84;21107;-36
2022/04/08 10:24:31;;;;;;;9.05;4.08;;;;;;;11.54;59.01;98463.02;1711823;83;20991;-36
2022/04/08 10:27:09;;;;;;;17.23;5.05;;;;;;;11.56;59.44;98462.53;1712871;83;21395;-36
2022/04/08 10:29:39;;;;;;;15.63;5.20;;;;;;;11.57;60.35;98464.23;1690640;84;21054;-35
2022/04/08 10:32:14;;;;;;;18.40;5.78;;;;;;;11.59;60.28;98453.25;1662736;85;20997;-36
2022/04/08 10:34:45;;;;;;;15.50;6.55;;;;;;;11.62;61.11;98458.41;1704215;83;21138;-37
2022/04/08 10:37:26;;;;;;;15.88;6.50;;;;;;;11.65;61.64;98464.83;1712575;83;21071;-36
2022/04/08 10:40:06;;;;;;;19.73;7.00;;;;;;;11.67;61.94;98453.41;1711090;83;21522;-35
2022/04/08 10:42:34;;;;;;;15.38;7.42;;;;;;;11.72;62.39;98454.12;1708470;83;20969;-35
2022/04/08 10:45:13;;;;;;;19.05;5.95;;;;;;;11.70;63.26;98451.98;1702515;82;21078;-36
2022/04/08 10:47:50;;;;;;;17.67;5.78;;;;;;;11.67;63.84;98454.72;1704625;83;20994;-43
2022/04/08 10:50:28;;;;;;;15.43;6.55;;;;;;;11.61;64.41;98447.07;1702226;83;21403;-43
2022/04/08 10:53:09;;;;;;;17.17;6.03;;;;;;;11.57;63.69;98456.38;1703943;83;21040;-43
2022/04/08 10:55:53;;;;;;;15.88;5.62;;;;;;;11.51;64.23;98443.49;1703900;83;21076;-43
2022/04/08 10:58:33;;;;;;;12.40;4.83;;;;;;;11.48;64.33;98447.51;1703673;83;21049;-43
2022/04/08 11:01:00;;;;;;;16.00;7.22;;;;;;;11.48;64.75;98448.39;1704002;83;21006;-43
2022/04/08 11:03:28;;;;;;;12.58;5.83;;;;;;;11.49;64.18;98440.93;1703799;83;21043;-43
2022/04/08 11:05:58;;;;;;;14.07;5.28;;;;;;;11.53;64.31;98442.52;1742791;82;21547;-43
2022/04/08 11:08:25;;;;;;;10.40;5.67;;;;;;;11.57;63.61;98425.81;1748357;82;21001;-35
2022/04/08 11:10:59;;;;;;;12.23;5.37;;;;;;;11.61;63.56;98409.55;1743621;82;21009;-35
2022/04/08 11:13:27;;;;;;;10.23;5.40;;;;;;;11.67;63.92;98407.57;1745786;82;21053;-35
2022/04/08 11:15:55;;;;;;;15.95;5.25;;;;;;;11.77;64.12;98395.45;1740206;82;21556;-35
2022/04/08 11:18:30;;;;;;;11.30;5.17;;;;;;;11.85;63.84;98401.33;1744646;82;21063;-35
2022/04/08 11:20:57;;;;;;;18.53;6.83;;;;;;;11.97;63.22;98417.92;1743039;82;21044;-37
2022/04/08 11:23:32;;;;;;;19.02;4.95;;;;;;;12.11;63.00;98428.77;1744453;82;21532;-43
2022/04/08 11:26:02;;;;;;;13.05;5.17;;;;;;;12.23;62.87;98436.22;1747681;81;21107;-43
2022/04/08 11:28:31;;;;;;;12.80;4.85;;;;;;;12.40;61.86;98434.72;1724685;81;21545;-42
2022/04/08 11:31:03;;;;;;;9.00;3.60;;;;;;;12.59;60.35;98447.58;1722854;82;21067;-43
2022/04/08 11:33:30;;;;;;;13.00;4.83;;;;;;;12.71;60.32;98438.39;1720773;82;21054;-43
2022/04/08 11:36:10;;;;;;;11.40;4.58;;;;;;;12.76;59.12;98429.42;1720492;82;21127;-43
2022/04/08 11:38:38;;;;;;;14.45;4.75;;;;;;;12.81;59.34;98421.35;1720295;82;21027;-44
2022/04/08 11:41:09;;;;;;;15.30;4.95;;;;;;;12.93;59.30;98417.39;1720242;82;21133;-35
2022/04/08 11:43:37;;;;;;;15.05;5.12;;;;;;;13.01;58.21;98415.34;1719520;82;21321;-35
2022/04/08 11:46:08;;;;;;;12.43;4.55;;;;;;;13.03;57.92;98422.23;1707666;82;21097;-35
2022/04/08 11:48:38;;;;;;;24.27;6.03;;;;;;;13.08;57.61;98425.14;1693005;82;21021;-42
2022/04/08 11:51:06;;;;;;;9.08;4.55;;;;;;;13.08;57.16;98431.24;1715552;83;21068;-35
2022/04/08 11:53:52;;;;;;;17.20;4.70;;;;;;;13.02;57.22;98428.40;1718377;83;21099;-43
2022/04/08 11:56:23;;;;;;;12.88;4.45;;;;;;;13.01;57.91;98431.09;1718240;83;21069;-44
2022/04/08 11:59:01;;;;;;;15.55;5.70;;;;;;;13.04;58.16;98424.39;1751963;82;21026;-36
2022/04/08 12:01:33;;;;;;;14.90;5.35;;;;;;;13.07;57.67;98416.88;1736203;82;21106;-37
2022/04/08 12:04:06;;;;;;;19.70;6.22;;;;;;;13.06;57.55;98410.77;1720504;83;21101;-41
2022/04/08 12:06:41;;;;;;;17.10;6.35;;;;;;;13.09;57.38;98411.95;1720107;82;21039;-43
